Primrose, Iowa
Current Conditions -  °F | °C
As of 1:55 PM on Thursday 30 Oct 2014 (Local Time) from KFSW Reporting Station
Scattered Clouds Scattered Clouds  
Wind Chill: 57°   Ceiling: Unl
Heat Index: 57°   Visibility: 10mi
Dew Point: 41°   Wind: 7mph
Humidity: 55%   Direction: 120°ESE
Pressure: 30.01"   Gusts: NA
Location:  40.6822°N, 91.6042°W
Report Text: KFSW 301855Z AUTO 12006KT 10SM SCT060 14/05 A3001 RMK AO2
Loading
Personal Weather Stations






























Interactive Weather Map
Tropical Storm Tracking
New forecast layout! Learn more

10-Day Weather Forecast

Advertisements
Track Severe Weather on mobile